sensor_id;sensor_type;location;lat;lon;timestamp;pressure;altitude;pressure_sealevel;temperature;humidity
69060;BME280;56135;37.534;-122.308;2022-10-22T00:01:34;100939.44;;;14.84;100.00
69060;BME280;56135;37.534;-122.308;2022-10-22T00:04:00;100943.09;;;14.80;100.00
69060;BME280;56135;37.534;-122.308;2022-10-22T00:06:26;100952.00;;;14.79;100.00
69060;BME280;56135;37.534;-122.308;2022-10-22T00:08:52;100950.31;;;14.75;100.00
69060;BME280;56135;37.534;-122.308;2022-10-22T00:11:18;100933.59;;;14.71;100.00
69060;BME280;56135;37.534;-122.308;2022-10-22T00:13:44;100931.09;;;14.65;100.00
69060;BME280;56135;37.534;-122.308;2022-10-22T00:16:10;100952.63;;;14.54;100.00
69060;BME280;56135;37.534;-122.308;2022-10-22T00:18:37;100943.06;;;14.47;100.00
69060;BME280;56135;37.534;-122.308;2022-10-22T00:21:04;100944.09;;;14.41;100.00
69060;BME280;56135;37.534;-122.308;2022-10-22T00:23:30;100957.47;;;14.38;100.00
69060;BME280;56135;37.534;-122.308;2022-10-22T00:25:55;100972.63;;;14.33;100.00
69060;BME280;56135;37.534;-122.308;2022-10-22T00:28:21;100971.88;;;14.28;100.00
69060;BME280;56135;37.534;-122.308;2022-10-22T00:30:47;100977.38;;;14.20;100.00
69060;BME280;56135;37.534;-122.308;2022-10-22T00:33:13;100993.53;;;14.11;100.00
69060;BME280;56135;37.534;-122.308;2022-10-22T00:35:39;100983.06;;;14.05;100.00
69060;BME280;56135;37.534;-122.308;2022-10-22T00:38:05;100973.53;;;13.96;100.00
69060;BME280;56135;37.534;-122.308;2022-10-22T00:40:30;100963.88;;;13.92;100.00
69060;BME280;56135;37.534;-122.308;2022-10-22T00:42:56;100972.84;;;13.88;100.00
69060;BME280;56135;37.534;-122.308;2022-10-22T00:45:25;100970.34;;;13.80;100.00
69060;BME280;56135;37.534;-122.308;2022-10-22T00:50:22;100959.06;;;13.70;100.00
69060;BME280;56135;37.534;-122.308;2022-10-22T00:52:49;100950.38;;;13.62;100.00
69060;BME280;56135;37.534;-122.308;2022-10-22T00:55:15;100951.41;;;13.56;100.00
69060;BME280;56135;37.534;-122.308;2022-10-22T00:57:42;100935.69;;;13.47;100.00
69060;BME280;56135;37.534;-122.308;2022-10-22T01:00:08;100943.75;;;13.42;100.00
69060;BME280;56135;37.534;-122.308;2022-10-22T01:02:34;100938.56;;;13.36;100.00
69060;BME280;56135;37.534;-122.308;2022-10-22T01:05:00;100942.13;;;13.33;100.00
69060;BME280;56135;37.534;-122.308;2022-10-22T01:07:25;100942.19;;;13.30;100.00
69060;BME280;56135;37.534;-122.308;2022-10-22T01:10:06;100941.41;;;13.25;100.00
69060;BME280;56135;37.534;-122.308;2022-10-22T01:12:45;100924.69;;;13.22;100.00
69060;BME280;56135;37.534;-122.308;2022-10-22T01:15:25;100937.13;;;13.18;100.00
69060;BME280;56135;37.534;-122.308;2022-10-22T01:18:01;100932.75;;;13.15;100.00
69060;BME280;56135;37.534;-122.308;2022-10-22T01:20:38;100926.69;;;13.09;100.00
69060;BME280;56135;37.534;-122.308;2022-10-22T01:31:07;100926.09;;;12.94;100.00
69060;BME280;56135;37.534;-122.308;2022-10-22T01:33:36;100920.84;;;12.93;100.00
69060;BME280;56135;37.534;-122.308;2022-10-22T01:36:03;100918.22;;;12.91;100.00
69060;BME280;56135;37.534;-122.308;2022-10-22T01:38:29;100927.09;;;12.89;100.00
69060;BME280;56135;37.534;-122.308;2022-10-22T01:40:56;100929.88;;;12.84;100.00
69060;BME280;56135;37.534;-122.308;2022-10-22T01:43:21;100940.50;;;12.81;100.00
69060;BME280;56135;37.534;-122.308;2022-10-22T01:45:49;100956.47;;;12.78;100.00
69060;BME280;56135;37.534;-122.308;2022-10-22T01:51:03;100972.44;;;12.75;100.00
69060;BME280;56135;37.534;-122.308;2022-10-22T01:58:44;101001.78;;;12.65;100.00
69060;BME280;56135;37.534;-122.308;2022-10-22T02:01:18;100999.16;;;12.62;100.00
69060;BME280;56135;37.534;-122.308;2022-10-22T02:04:35;100986.81;;;12.61;100.00
69060;BME280;56135;37.534;-122.308;2022-10-22T02:06:35;100993.91;;;12.59;100.00
69060;BME280;56135;37.534;-122.308;2022-10-22T02:09:00;101004.59;;;12.56;100.00
69060;BME280;56135;37.534;-122.308;2022-10-22T02:11:27;101013.47;;;12.52;100.00
69060;BME280;56135;37.534;-122.308;2022-10-22T02:13:54;101017.06;;;12.49;100.00
69060;BME280;56135;37.534;-122.308;2022-10-22T02:16:37;101033.91;;;12.45;100.00
69060;BME280;56135;37.534;-122.308;2022-10-22T02:19:06;101039.22;;;12.44;100.00
69060;BME280;56135;37.534;-122.308;2022-10-22T02:21:34;101027.81;;;12.39;100.00
69060;BME280;56135;37.534;-122.308;2022-10-22T02:24:00;101021.66;;;12.37;100.00
69060;BME280;56135;37.534;-122.308;2022-10-22T02:26:33;101015.56;;;12.31;100.00
69060;BME280;56135;37.534;-122.308;2022-10-22T02:29:23;101008.53;;;12.29;100.00
69060;BME280;56135;37.534;-122.308;2022-10-22T02:31:46;101009.47;;;12.26;100.00
69060;BME280;56135;37.534;-122.308;2022-10-22T02:34:14;101005.06;;;12.27;100.00
69060;BME280;56135;37.534;-122.308;2022-10-22T02:36:41;101017.34;;;12.31;100.00
69060;BME280;56135;37.534;-122.308;2022-10-22T02:39:08;101024.38;;;12.32;100.00
69060;BME280;56135;37.534;-122.308;2022-10-22T02:41:35;101033.22;;;12.32;100.00
69060;BME280;56135;37.534;-122.308;2022-10-22T02:44:05;101039.38;;;12.33;100.00
69060;BME280;56135;37.534;-122.308;2022-10-22T02:46:31;101040.25;;;12.35;100.00
69060;BME280;56135;37.534;-122.308;2022-10-22T02:48:57;101035.88;;;12.32;100.00
69060;BME280;56135;37.534;-122.308;2022-10-22T02:51:23;101027.03;;;12.33;100.00
69060;BME280;56135;37.534;-122.308;2022-10-22T02:53:49;101027.00;;;12.35;100.00
69060;BME280;56135;37.534;-122.308;2022-10-22T02:56:14;101015.50;;;12.34;100.00
69060;BME280;56135;37.534;-122.308;2022-10-22T02:58:40;101027.03;;;12.33;100.00
69060;BME280;56135;37.534;-122.308;2022-10-22T03:01:06;101014.66;;;12.34;100.00
69060;BME280;56135;37.534;-122.308;2022-10-22T03:03:32;101015.53;;;12.33;100.00
69060;BME280;56135;37.534;-122.308;2022-10-22T03:05:57;101009.34;;;12.34;100.00
69060;BME280;56135;37.534;-122.308;2022-10-22T03:08:26;101004.09;;;12.31;100.00
69060;BME280;56135;37.534;-122.308;2022-10-22T03:10:51;100988.22;;;12.29;100.00
69060;BME280;56135;37.534;-122.308;2022-10-22T03:13:17;100990.94;;;12.25;100.00
69060;BME280;56135;37.534;-122.308;2022-10-22T03:15:43;100975.91;;;12.25;100.00
69060;BME280;56135;37.534;-122.308;2022-10-22T03:18:08;100968.09;;;12.19;100.00
69060;BME280;56135;37.534;-122.308;2022-10-22T03:20:34;100962.72;;;12.22;100.00
69060;BME280;56135;37.534;-122.308;2022-10-22T03:23:00;100957.50;;;12.19;100.00
69060;BME280;56135;37.534;-122.308;2022-10-22T03:25:26;100972.16;;;12.40;100.00
69060;BME280;56135;37.534;-122.308;2022-10-22T03:27:53;100964.38;;;12.29;100.00
69060;BME280;56135;37.534;-122.308;2022-10-22T03:30:21;100960.94;;;12.23;100.00
69060;BME280;56135;37.534;-122.308;2022-10-22T03:32:47;100952.16;;;12.21;100.00
69060;BME280;56135;37.534;-122.308;2022-10-22T03:35:13;100958.34;;;12.20;100.00
69060;BME280;56135;37.534;-122.308;2022-10-22T03:37:38;100952.19;;;12.19;100.00
69060;BME280;56135;37.534;-122.308;2022-10-22T03:40:05;100955.75;;;12.18;100.00
69060;BME280;56135;37.534;-122.308;2022-10-22T03:42:31;100954.84;;;12.19;100.00
69060;BME280;56135;37.534;-122.308;2022-10-22T03:44:57;100961.03;;;12.18;100.00
69060;BME280;56135;37.534;-122.308;2022-10-22T03:47:23;100970.78;;;12.16;100.00
69060;BME280;56135;37.534;-122.308;2022-10-22T03:49:50;100973.44;;;12.14;100.00
69060;BME280;56135;37.534;-122.308;2022-10-22T03:52:16;100984.13;;;12.10;100.00
69060;BME280;56135;37.534;-122.308;2022-10-22T03:54:41;100998.25;;;12.09;100.00
69060;BME280;56135;37.534;-122.308;2022-10-22T03:57:07;101003.56;;;12.09;100.00
69060;BME280;56135;37.534;-122.308;2022-10-22T03:59:34;101014.19;;;12.06;100.00
69060;BME280;56135;37.534;-122.308;2022-10-22T04:02:00;101016.81;;;12.07;100.00
69060;BME280;56135;37.534;-122.308;2022-10-22T04:04:26;101010.59;;;12.10;100.00
69060;BME280;56135;37.534;-122.308;2022-10-22T04:06:52;100999.97;;;12.13;100.00
69060;BME280;56135;37.534;-122.308;2022-10-22T04:09:17;101001.59;;;12.20;100.00
69060;BME280;56135;37.534;-122.308;2022-10-22T04:11:43;101005.00;;;12.30;100.00
69060;BME280;56135;37.534;-122.308;2022-10-22T04:14:09;101001.31;;;12.39;100.00
69060;BME280;56135;37.534;-122.308;2022-10-22T04:16:37;101005.69;;;12.41;100.00
69060;BME280;56135;37.534;-122.308;2022-10-22T04:19:03;101002.06;;;12.48;100.00
69060;BME280;56135;37.534;-122.308;2022-10-22T04:21:29;100995.72;;;12.56;100.00
69060;BME280;56135;37.534;-122.308;2022-10-22T04:23:55;100999.19;;;12.61;100.00
69060;BME280;56135;37.534;-122.308;2022-10-22T04:26:20;100999.06;;;12.68;100.00
69060;BME280;56135;37.534;-122.308;2022-10-22T04:28:48;101005.13;;;12.75;100.00
69060;BME280;56135;37.534;-122.308;2022-10-22T04:31:18;101015.66;;;12.78;100.00
69060;BME280;56135;37.534;-122.308;2022-10-22T04:33:44;101014.72;;;12.81;100.00
69060;BME280;56135;37.534;-122.308;2022-10-22T04:36:12;101011.13;;;12.87;100.00
69060;BME280;56135;37.534;-122.308;2022-10-22T04:38:38;101020.78;;;12.91;100.00
69060;BME280;56135;37.534;-122.308;2022-10-22T04:41:08;101014.56;;;12.90;100.00
69060;BME280;56135;37.534;-122.308;2022-10-22T04:43:34;101016.25;;;12.96;100.00
69060;BME280;56135;37.534;-122.308;2022-10-22T04:46:00;101010.97;;;12.96;100.00
69060;BME280;56135;37.534;-122.308;2022-10-22T04:48:25;100991.47;;;12.97;100.00
69060;BME280;56135;37.534;-122.308;2022-10-22T04:50:51;100980.84;;;12.97;100.00
69060;BME280;56135;37.534;-122.308;2022-10-22T04:53:17;100980.84;;;12.98;100.00
69060;BME280;56135;37.534;-122.308;2022-10-22T04:55:42;100977.31;;;12.98;100.00
69060;BME280;56135;37.534;-122.308;2022-10-22T04:58:08;100970.25;;;12.97;100.00
69060;BME280;56135;37.534;-122.308;2022-10-22T05:00:34;100961.44;;;12.96;100.00
69060;BME280;56135;37.534;-122.308;2022-10-22T05:03:00;100964.06;;;12.98;100.00
69060;BME280;56135;37.534;-122.308;2022-10-22T05:05:25;100975.53;;;13.00;100.00
69060;BME280;56135;37.534;-122.308;2022-10-22T05:07:51;100970.06;;;13.06;100.00
69060;BME280;56135;37.534;-122.308;2022-10-22T05:10:17;100974.44;;;13.09;100.00
69060;BME280;56135;37.534;-122.308;2022-10-22T05:12:43;100978.00;;;13.09;100.00
69060;BME280;56135;37.534;-122.308;2022-10-22T05:15:09;100977.09;;;13.10;100.00
69060;BME280;56135;37.534;-122.308;2022-10-22T05:17:35;100984.06;;;13.16;100.00
69060;BME280;56135;37.534;-122.308;2022-10-22T05:20:02;100975.19;;;13.15;100.00
69060;BME280;56135;37.534;-122.308;2022-10-22T05:22:28;100975.19;;;13.17;100.00
69060;BME280;56135;37.534;-122.308;2022-10-22T05:24:54;100969.88;;;13.17;100.00
69060;BME280;56135;37.534;-122.308;2022-10-22T05:27:20;100960.13;;;13.17;100.00
69060;BME280;56135;37.534;-122.308;2022-10-22T05:29:45;100944.22;;;13.17;100.00
69060;BME280;56135;37.534;-122.308;2022-10-22T05:32:11;100950.38;;;13.18;100.00
69060;BME280;56135;37.534;-122.308;2022-10-22T05:34:37;100952.06;;;13.22;100.00
69060;BME280;56135;37.534;-122.308;2022-10-22T05:37:03;100945.84;;;13.25;100.00
69060;BME280;56135;37.534;-122.308;2022-10-22T05:39:28;100950.28;;;13.24;100.00
69060;BME280;56135;37.534;-122.308;2022-10-22T05:41:54;100951.22;;;13.22;100.00
69060;BME280;56135;37.534;-122.308;2022-10-22T05:44:40;100936.09;;;13.25;100.00
69060;BME280;56135;37.534;-122.308;2022-10-22T05:47:06;100938.81;;;13.22;100.00
69060;BME280;56135;37.534;-122.308;2022-10-22T05:49:31;100943.28;;;13.20;100.00
69060;BME280;56135;37.534;-122.308;2022-10-22T05:51:57;100961.84;;;13.20;100.00
69060;BME280;56135;37.534;-122.308;2022-10-22T05:54:23;100977.78;;;13.20;100.00
69060;BME280;56135;37.534;-122.308;2022-10-22T05:56:49;100970.72;;;13.19;100.00
69060;BME280;56135;37.534;-122.308;2022-10-22T05:59:14;100988.47;;;13.17;100.00
69060;BME280;56135;37.534;-122.308;2022-10-22T06:01:40;100997.28;;;13.17;100.00
69060;BME280;56135;37.534;-122.308;2022-10-22T06:04:07;100995.53;;;13.16;100.00
69060;BME280;56135;37.534;-122.308;2022-10-22T06:09:09;100997.34;;;13.13;100.00
69060;BME280;56135;37.534;-122.308;2022-10-22T06:11:35;100993.91;;;13.09;100.00
69060;BME280;56135;37.534;-122.308;2022-10-22T06:14:02;100985.06;;;13.09;100.00
69060;BME280;56135;37.534;-122.308;2022-10-22T06:16:28;100999.22;;;13.09;100.00
69060;BME280;56135;37.534;-122.308;2022-10-22T06:18:54;101001.91;;;13.08;100.00
69060;BME280;56135;37.534;-122.308;2022-10-22T06:21:20;101001.09;;;13.02;100.00
69060;BME280;56135;37.534;-122.308;2022-10-22T06:23:45;100990.50;;;13.02;100.00
69060;BME280;56135;37.534;-122.308;2022-10-22T06:26:11;100986.16;;;12.98;100.00
69060;BME280;56135;37.534;-122.308;2022-10-22T06:28:37;100974.63;;;12.99;100.00
69060;BME280;56135;37.534;-122.308;2022-10-22T06:31:03;100973.72;;;13.00;100.00
69060;BME280;56135;37.534;-122.308;2022-10-22T06:33:30;100971.03;;;13.02;100.00
69060;BME280;56135;37.534;-122.308;2022-10-22T06:36:03;100983.41;;;13.03;100.00
69060;BME280;56135;37.534;-122.308;2022-10-22T06:38:29;100994.03;;;13.01;100.00
69060;BME280;56135;37.534;-122.308;2022-10-22T06:40:54;100985.22;;;13.01;100.00
69060;BME280;56135;37.534;-122.308;2022-10-22T06:43:20;100999.34;;;13.01;100.00
69060;BME280;56135;37.534;-122.308;2022-10-22T06:45:46;100985.22;;;13.01;100.00
69060;BME280;56135;37.534;-122.308;2022-10-22T06:48:12;100984.34;;;13.00;100.00
69060;BME280;56135;37.534;-122.308;2022-10-22T06:50:37;100992.28;;;13.00;100.00
69060;BME280;56135;37.534;-122.308;2022-10-22T06:53:03;100991.41;;;13.01;100.00
69060;BME280;56135;37.534;-122.308;2022-10-22T06:55:29;100981.66;;;13.02;100.00
69060;BME280;56135;37.534;-122.308;2022-10-22T06:57:55;100993.97;;;13.05;100.00
69060;BME280;56135;37.534;-122.308;2022-10-22T07:00:20;100996.59;;;13.08;100.00
69060;BME280;56135;37.534;-122.308;2022-10-22T07:02:49;100997.44;;;13.08;100.00
69060;BME280;56135;37.534;-122.308;2022-10-22T07:05:17;100990.34;;;13.09;100.00
69060;BME280;56135;37.534;-122.308;2022-10-22T07:07:43;100991.22;;;13.11;100.00
69060;BME280;56135;37.534;-122.308;2022-10-22T07:10:08;100980.69;;;13.08;100.00
69060;BME280;56135;37.534;-122.308;2022-10-22T07:12:34;100984.22;;;13.07;100.00
69060;BME280;56135;37.534;-122.308;2022-10-22T07:15:00;100973.66;;;13.04;100.00
69060;BME280;56135;37.534;-122.308;2022-10-22T07:17:26;100973.66;;;13.04;100.00
69060;BME280;56135;37.534;-122.308;2022-10-22T07:19:51;100977.25;;;13.02;100.00
69060;BME280;56135;37.534;-122.308;2022-10-22T07:22:17;100974.56;;;13.04;100.00
69060;BME280;56135;37.534;-122.308;2022-10-22T07:24:43;100978.00;;;13.09;100.00
69060;BME280;56135;37.534;-122.308;2022-10-22T07:27:09;100967.31;;;13.12;100.00
69060;BME280;56135;37.534;-122.308;2022-10-22T07:29:34;100964.63;;;13.14;100.00
69060;BME280;56135;37.534;-122.308;2022-10-22T07:32:00;100968.97;;;13.18;100.00
69060;BME280;56135;37.534;-122.308;2022-10-22T07:34:26;100968.97;;;13.20;100.00
69060;BME280;56135;37.534;-122.308;2022-10-22T07:36:52;100964.41;;;13.26;100.00
69060;BME280;56135;37.534;-122.308;2022-10-22T07:39:17;100958.97;;;13.31;100.00
69060;BME280;56135;37.534;-122.308;2022-10-22T07:41:43;100956.25;;;13.34;100.00
69060;BME280;56135;37.534;-122.308;2022-10-22T07:44:10;100951.84;;;13.36;100.00
69060;BME280;56135;37.534;-122.308;2022-10-22T07:46:36;100962.41;;;13.38;100.00
69060;BME280;56135;37.534;-122.308;2022-10-22T07:49:01;100951.72;;;13.41;100.00
69060;BME280;56135;37.534;-122.308;2022-10-22T07:51:27;100951.72;;;13.42;100.00
69060;BME280;56135;37.534;-122.308;2022-10-22T07:53:53;100940.22;;;13.42;100.00
69060;BME280;56135;37.534;-122.308;2022-10-22T07:56:19;100941.03;;;13.45;100.00
69060;BME280;56135;37.534;-122.308;2022-10-22T07:58:44;100953.41;;;13.46;100.00
69060;BME280;56135;37.534;-122.308;2022-10-22T08:01:10;100947.16;;;13.49;100.00
69060;BME280;56135;37.534;-122.308;2022-10-22T08:03:37;100950.59;;;13.52;100.00
69060;BME280;56135;37.534;-122.308;2022-10-22T08:06:03;100953.22;;;13.54;100.00
69060;BME280;56135;37.534;-122.308;2022-10-22T08:08:28;100961.94;;;13.59;100.00
69060;BME280;56135;37.534;-122.308;2022-10-22T08:10:54;100968.06;;;13.63;100.00
69060;BME280;56135;37.534;-122.308;2022-10-22T08:13:21;100976.00;;;13.64;100.00
69060;BME280;56135;37.534;-122.308;2022-10-22T08:15:48;100970.69;;;13.64;100.00
69060;BME280;56135;37.534;-122.308;2022-10-22T08:18:13;100958.34;;;13.62;100.00
69060;BME280;56135;37.534;-122.308;2022-10-22T08:20:39;100966.31;;;13.62;100.00
69060;BME280;56135;37.534;-122.308;2022-10-22T08:23:05;100957.47;;;13.61;100.00
69060;BME280;56135;37.534;-122.308;2022-10-22T08:25:31;100946.91;;;13.60;100.00
69060;BME280;56135;37.534;-122.308;2022-10-22T08:27:57;100938.09;;;13.58;100.00
69060;BME280;56135;37.534;-122.308;2022-10-22T08:30:23;100941.59;;;13.60;100.00
69060;BME280;56135;37.534;-122.308;2022-10-22T08:32:52;100936.31;;;13.58;100.00
69060;BME280;56135;37.534;-122.308;2022-10-22T08:35:17;100927.50;;;13.56;100.00
69060;BME280;56135;37.534;-122.308;2022-10-22T08:37:43;100916.06;;;13.54;100.00
69060;BME280;56135;37.534;-122.308;2022-10-22T08:40:09;100913.38;;;13.56;100.00
69060;BME280;56135;37.534;-122.308;2022-10-22T08:48:46;100901.09;;;13.51;100.00
69060;BME280;56135;37.534;-122.308;2022-10-22T08:51:16;100907.34;;;13.47;100.00
69060;BME280;56135;37.534;-122.308;2022-10-22T08:56:15;100929.53;;;13.45;100.00
69060;BME280;56135;37.534;-122.308;2022-10-22T09:01:24;100921.53;;;13.46;100.00
69060;BME280;56135;37.534;-122.308;2022-10-22T09:03:56;100928.56;;;13.49;100.00
69060;BME280;56135;37.534;-122.308;2022-10-22T09:06:24;100912.56;;;13.52;100.00
69060;BME280;56135;37.534;-122.308;2022-10-22T09:08:51;100909.06;;;13.50;100.00
69060;BME280;56135;37.534;-122.308;2022-10-22T09:13:46;100905.66;;;13.45;100.00
69060;BME280;56135;37.534;-122.308;2022-10-22T09:16:14;100901.25;;;13.44;100.00
69060;BME280;56135;37.534;-122.308;2022-10-22T09:21:36;100905.50;;;13.51;100.00
69060;BME280;56135;37.534;-122.308;2022-10-22T09:24:05;100900.09;;;13.56;100.00
69060;BME280;56135;37.534;-122.308;2022-10-22T09:26:35;100902.63;;;13.60;100.00
69060;BME280;56135;37.534;-122.308;2022-10-22T09:29:02;100894.59;;;13.65;100.00
69060;BME280;56135;37.534;-122.308;2022-10-22T09:31:29;100898.91;;;13.69;100.00
69060;BME280;56135;37.534;-122.308;2022-10-22T09:33:55;100899.72;;;13.73;100.00
69060;BME280;56135;37.534;-122.308;2022-10-22T09:36:23;100894.28;;;13.77;100.00
69060;BME280;56135;37.534;-122.308;2022-10-22T09:38:50;100898.63;;;13.81;100.00
69060;BME280;56135;37.534;-122.308;2022-10-22T09:41:22;100889.69;;;13.84;100.00
69060;BME280;56135;37.534;-122.308;2022-10-22T09:43:48;100894.03;;;13.88;100.00
69060;BME280;56135;37.534;-122.308;2022-10-22T09:46:18;100902.88;;;13.89;100.00
69060;BME280;56135;37.534;-122.308;2022-10-22T09:49:05;100898.34;;;13.92;100.00
69060;BME280;56135;37.534;-122.308;2022-10-22T09:51:50;100899.06;;;13.99;100.00
69060;BME280;56135;37.534;-122.308;2022-10-22T09:54:17;100906.13;;;14.00;100.00
69060;BME280;56135;37.534;-122.308;2022-10-22T09:57:20;100914.91;;;14.04;100.00
69060;BME280;56135;37.534;-122.308;2022-10-22T09:59:36;100926.34;;;14.06;100.00
69060;BME280;56135;37.534;-122.308;2022-10-22T10:02:08;100936.88;;;14.10;100.00
69060;BME280;56135;37.534;-122.308;2022-10-22T10:04:40;100941.25;;;14.13;100.00
69060;BME280;56135;37.534;-122.308;2022-10-22T10:07:13;100944.78;;;14.13;100.00
69060;BME280;56135;37.534;-122.308;2022-10-22T10:09:39;100950.00;;;14.18;100.00
69060;BME280;56135;37.534;-122.308;2022-10-22T10:12:15;100949.09;;;14.19;100.00
69060;BME280;56135;37.534;-122.308;2022-10-22T10:17:18;100911.72;;;14.25;100.00
69060;BME280;56135;37.534;-122.308;2022-10-22T10:22:15;100869.09;;;14.30;100.00
69060;BME280;56135;37.534;-122.308;2022-10-22T10:29:49;100819.34;;;14.35;100.00
69060;BME280;56135;37.534;-122.308;2022-10-22T10:37:54;100848.59;;;14.33;100.00
69060;BME280;56135;37.534;-122.308;2022-10-22T10:40:22;100843.22;;;14.37;100.00
69060;BME280;56135;37.534;-122.308;2022-10-22T10:42:57;100849.44;;;14.35;100.00
69060;BME280;56135;37.534;-122.308;2022-10-22T10:50:40;100813.19;;;14.33;100.00
69060;BME280;56135;37.534;-122.308;2022-10-22T10:55:56;100801.72;;;14.31;100.00
69060;BME280;56135;37.534;-122.308;2022-10-22T10:58:34;100788.47;;;14.29;100.00
69060;BME280;56135;37.534;-122.308;2022-10-22T11:04:10;100804.38;;;14.32;100.00
69060;BME280;56135;37.534;-122.308;2022-10-22T11:06:40;100806.97;;;14.34;100.00
69060;BME280;56135;37.534;-122.308;2022-10-22T11:11:58;100822.78;;;14.39;100.00
69060;BME280;56135;37.534;-122.308;2022-10-22T11:14:28;100816.47;;;14.43;100.00
69060;BME280;56135;37.534;-122.308;2022-10-22T11:16:58;100814.75;;;14.42;100.00
69060;BME280;56135;37.534;-122.308;2022-10-22T11:19:31;100793.53;;;14.39;100.00
69060;BME280;56135;37.534;-122.308;2022-10-22T11:22:05;100798.84;;;14.39;100.00
69060;BME280;56135;37.534;-122.308;2022-10-22T11:24:39;100799.66;;;14.42;100.00
69060;BME280;56135;37.534;-122.308;2022-10-22T11:27:09;100803.09;;;14.46;100.00
69060;BME280;56135;37.534;-122.308;2022-10-22T11:29:38;100817.94;;;14.53;100.00
69060;BME280;56135;37.534;-122.308;2022-10-22T11:32:05;100817.84;;;14.56;100.00
69060;BME280;56135;37.534;-122.308;2022-10-22T11:34:45;100801.91;;;14.56;100.00
69060;BME280;56135;37.534;-122.308;2022-10-22T11:37:13;100799.28;;;14.55;100.00
69060;BME280;56135;37.534;-122.308;2022-10-22T11:42:31;100810.06;;;14.50;100.00
69060;BME280;56135;37.534;-122.308;2022-10-22T11:44:59;100810.19;;;14.45;100.00
69060;BME280;56135;37.534;-122.308;2022-10-22T11:47:26;100798.84;;;14.39;100.00
69060;BME280;56135;37.534;-122.308;2022-10-22T11:52:26;100783.16;;;14.29;100.00
69060;BME280;56135;37.534;-122.308;2022-10-22T11:54:53;100775.19;;;14.29;100.00
69060;BME280;56135;37.534;-122.308;2022-10-22T11:57:34;100772.53;;;14.29;100.00
69060;BME280;56135;37.534;-122.308;2022-10-22T12:00:05;100760.91;;;14.33;100.00
69060;BME280;56135;37.534;-122.308;2022-10-22T12:02:43;100774.19;;;14.35;100.00
69060;BME280;56135;37.534;-122.308;2022-10-22T12:07:56;100806.94;;;14.35;100.00
69060;BME280;56135;37.534;-122.308;2022-10-22T12:10:28;100832.66;;;14.33;100.00
69060;BME280;56135;37.534;-122.308;2022-10-22T12:13:01;100831.88;;;14.30;100.00
69060;BME280;56135;37.534;-122.308;2022-10-22T12:15:28;100832.75;;;14.30;100.00
69060;BME280;56135;37.534;-122.308;2022-10-22T12:18:01;100831.00;;;14.29;100.00
69060;BME280;56135;37.534;-122.308;2022-10-22T12:20:28;100834.66;;;14.25;100.00
69060;BME280;56135;37.534;-122.308;2022-10-22T12:22:54;100837.31;;;14.25;100.00
69060;BME280;56135;37.534;-122.308;2022-10-22T12:25:22;100831.09;;;14.26;100.00
69060;BME280;56135;37.534;-122.308;2022-10-22T12:27:53;100832.84;;;14.27;100.00
69060;BME280;56135;37.534;-122.308;2022-10-22T12:30:20;100842.56;;;14.28;100.00
69060;BME280;56135;37.534;-122.308;2022-10-22T12:32:48;100841.56;;;14.31;100.00
69060;BME280;56135;37.534;-122.308;2022-10-22T12:35:17;100855.72;;;14.33;100.00
69060;BME280;56135;37.534;-122.308;2022-10-22T12:37:43;100850.34;;;14.34;100.00
69060;BME280;56135;37.534;-122.308;2022-10-22T12:40:28;100855.63;;;14.36;100.00
69060;BME280;56135;37.534;-122.308;2022-10-22T12:42:55;100851.19;;;14.37;100.00
69060;BME280;56135;37.534;-122.308;2022-10-22T12:45:22;100854.66;;;14.39;100.00
69060;BME280;56135;37.534;-122.308;2022-10-22T12:47:51;100856.47;;;14.38;100.00
69060;BME280;56135;37.534;-122.308;2022-10-22T12:50:21;100858.22;;;14.39;100.00
69060;BME280;56135;37.534;-122.308;2022-10-22T12:52:48;100859.06;;;14.40;100.00
69060;BME280;56135;37.534;-122.308;2022-10-22T12:55:14;100845.78;;;14.40;100.00
69060;BME280;56135;37.534;-122.308;2022-10-22T12:57:40;100858.22;;;14.39;100.00
69060;BME280;56135;37.534;-122.308;2022-10-22T13:00:18;100856.38;;;14.41;100.00
69060;BME280;56135;37.534;-122.308;2022-10-22T13:02:44;100859.91;;;14.42;100.00
69060;BME280;56135;37.534;-122.308;2022-10-22T13:07:45;100854.56;;;14.43;100.00
69060;BME280;56135;37.534;-122.308;2022-10-22T13:10:53;100864.28;;;14.43;100.00
69060;BME280;56135;37.534;-122.308;2022-10-22T13:13:00;100865.16;;;14.45;100.00
69060;BME280;56135;37.534;-122.308;2022-10-22T13:18:03;100868.66;;;14.45;100.00
69060;BME280;56135;37.534;-122.308;2022-10-22T13:20:29;100861.56;;;14.46;100.00
69060;BME280;56135;37.534;-122.308;2022-10-22T13:22:59;100858.91;;;14.46;100.00
69060;BME280;56135;37.534;-122.308;2022-10-22T13:25:27;100858.81;;;14.49;100.00
69060;BME280;56135;37.534;-122.308;2022-10-22T13:30:54;100870.41;;;14.46;100.00
69060;BME280;56135;37.534;-122.308;2022-10-22T13:35:52;100867.91;;;14.40;100.00
69060;BME280;56135;37.534;-122.308;2022-10-22T13:38:20;100859.97;;;14.39;100.00
69060;BME280;56135;37.534;-122.308;2022-10-22T13:40:46;100855.59;;;14.38;100.00